Time;durP1;ratioP1;P1;durP2;ratioP2;P2;SDS_P1;SDS_P2;PMS_P1;PMS_P2;Temp;Humidity;BMP_temperature;BMP_pressure;BME280_temperature;BME280_humidity;BME280_pressure;Samples;Min_cycle;Max_cycle;Signal;HPM_P1;HPM_P2
2023/04/22 00:00:16;;;;;;;26.07;23.47;;;11.50;99.90;;;;;;4880654;29;21163;-94
2023/04/22 00:02:42;;;;;;;27.92;25.02;;;11.20;99.90;;;;;;4879519;29;20437;-93
2023/04/22 00:05:12;;;;;;;28.52;25.42;;;11.10;99.90;;;;;;4879205;29;20519;-93
2023/04/22 00:07:41;;;;;;;30.00;26.75;;;11.10;99.90;;;;;;4879508;29;20409;-95
2023/04/22 00:10:09;;;;;;;25.45;22.83;;;11.10;99.90;;;;;;4879079;29;20518;-94
2023/04/22 00:12:34;;;;;;;27.63;24.67;;;11.00;99.90;;;;;;4880167;29;20759;-93
2023/04/22 00:15:00;;;;;;;43.20;33.47;;;11.10;99.90;;;;;;4879245;29;20417;-94
2023/04/22 00:17:26;;;;;;;38.22;29.52;;;11.00;99.90;;;;;;4880097;29;20427;-92
2023/04/22 00:19:51;;;;;;;33.50;26.95;;;11.00;99.90;;;;;;4879623;29;20424;-93
2023/04/22 00:22:17;;;;;;;33.20;28.77;;;11.00;99.90;;;;;;4879373;29;20432;-93
2023/04/22 00:24:43;;;;;;;39.10;27.13;;;11.10;99.90;;;;;;4879653;29;20478;-92
2023/04/22 00:27:09;;;;;;;26.63;23.55;;;11.00;99.90;;;;;;4878656;29;20517;-93
2023/04/22 00:29:34;;;;;;;42.05;31.45;;;10.90;99.90;;;;;;4879290;29;20425;-93
2023/04/22 00:32:00;;;;;;;54.10;27.77;;;11.10;99.90;;;;;;4879157;29;20441;-93
2023/04/22 00:34:26;;;;;;;26.65;23.73;;;10.80;99.90;;;;;;4879758;29;20512;-95
2023/04/22 00:36:51;;;;;;;33.23;26.70;;;10.70;99.90;;;;;;4879476;29;20465;-94
2023/04/22 00:39:17;;;;;;;30.20;25.93;;;10.50;99.90;;;;;;4879451;29;20409;-94
2023/04/22 00:41:43;;;;;;;105.93;22.52;;;10.50;99.90;;;;;;4879564;29;20485;-94
2023/04/22 00:44:10;;;;;;;41.65;24.92;;;10.50;99.90;;;;;;4879014;29;20556;-93
2023/04/22 00:46:39;;;;;;;38.10;27.00;;;10.70;99.90;;;;;;4879387;29;20417;-92
2023/04/22 00:49:06;;;;;;;34.25;24.20;;;10.40;99.90;;;;;;4878531;29;20420;-91
2023/04/22 00:51:32;;;;;;;32.85;26.00;;;10.40;99.90;;;;;;4879732;29;20472;-92
2023/04/22 00:54:00;;;;;;;32.70;26.95;;;10.50;99.90;;;;;;4878756;29;20910;-95
2023/04/22 00:56:27;;;;;;;32.90;26.70;;;10.40;99.90;;;;;;4878309;29;20418;-92
2023/04/22 00:58:56;;;;;;;32.83;28.25;;;10.40;99.90;;;;;;4878663;29;20418;-93
2023/04/22 01:01:22;;;;;;;32.03;27.20;;;10.20;99.90;;;;;;4878161;29;20425;-93
2023/04/22 01:03:51;;;;;;;28.37;25.40;;;10.70;99.90;;;;;;4878090;29;20464;-92
2023/04/22 01:06:18;;;;;;;27.30;24.42;;;9.70;99.90;;;;;;4877940;29;20473;-93
2023/04/22 01:08:44;;;;;;;25.50;22.80;;;10.30;99.90;;;;;;4878492;29;20417;-92
2023/04/22 01:11:10;;;;;;;29.02;24.08;;;10.20;99.90;;;;;;4877726;29;20421;-93
2023/04/22 01:13:37;;;;;;;25.00;22.50;;;10.30;99.90;;;;;;4878217;29;20429;-93
2023/04/22 01:16:07;;;;;;;27.13;24.15;;;9.90;99.90;;;;;;4878058;29;20421;-92
2023/04/22 01:18:34;;;;;;;24.50;22.00;;;9.80;99.90;;;;;;4878144;29;20509;-93
2023/04/22 01:21:01;;;;;;;25.03;22.43;;;10.30;99.90;;;;;;4878498;29;20504;-92
2023/04/22 01:23:27;;;;;;;27.13;24.25;;;9.80;99.90;;;;;;4877355;29;20444;-92
2023/04/22 01:25:53;;;;;;;25.05;22.23;;;9.90;99.90;;;;;;4877715;29;20417;-91
2023/04/22 01:28:19;;;;;;;26.88;23.63;;;9.70;99.90;;;;;;4877866;29;20881;-92
2023/04/22 01:30:47;;;;;;;27.47;24.33;;;9.70;99.90;;;;;;4878064;29;20417;-91
2023/04/22 01:33:15;;;;;;;28.15;24.73;;;10.20;99.90;;;;;;4877594;29;20424;-92
2023/04/22 01:35:41;;;;;;;25.73;22.95;;;10.00;99.90;;;;;;4878011;29;20417;-91
2023/04/22 01:38:09;;;;;;;25.40;22.60;;;9.70;99.90;;;;;;4877916;29;20421;-92
2023/04/22 01:40:35;;;;;;;24.90;22.20;;;9.90;99.90;;;;;;4877267;29;20420;-92
2023/04/22 01:43:02;;;;;;;24.88;22.38;;;9.60;99.90;;;;;;4878041;29;20540;-90
2023/04/22 01:45:28;;;;;;;26.15;23.35;;;9.60;99.90;;;;;;4877600;29;20424;-93
2023/04/22 01:47:54;;;;;;;26.58;23.67;;;9.30;99.90;;;;;;4877763;29;20527;-93
2023/04/22 01:50:21;;;;;;;26.45;23.75;;;9.40;99.90;;;;;;4877402;29;20421;-92
2023/04/22 01:52:47;;;;;;;27.83;24.80;;;9.50;99.90;;;;;;4878036;29;20449;-91
2023/04/22 01:55:13;;;;;;;27.10;24.20;;;9.50;99.90;;;;;;4815155;29;1844664;-91
2023/04/22 01:57:39;;;;;;;27.10;24.20;;;9.70;99.90;;;;;;4878235;29;20421;-93
2023/04/22 02:00:07;;;;;;;25.65;22.92;;;9.70;99.90;;;;;;4878719;29;20460;-91
2023/04/22 02:02:33;;;;;;;28.07;25.03;;;9.30;99.90;;;;;;4878029;29;20433;-93
2023/04/22 02:04:58;;;;;;;27.50;24.60;;;9.50;99.90;;;;;;4878510;29;20913;-91
2023/04/22 02:07:24;;;;;;;30.33;26.23;;;9.50;99.90;;;;;;4877993;29;20497;-92
2023/04/22 02:09:50;;;;;;;30.90;26.45;;;10.20;99.90;;;;;;4878236;29;20421;-93
2023/04/22 02:12:16;;;;;;;28.95;25.92;;;9.50;99.90;;;;;;4877954;29;20768;-92
2023/04/22 02:14:41;;;;;;;30.77;25.63;;;9.10;99.90;;;;;;4878490;29;20906;-91
2023/04/22 02:17:07;;;;;;;27.83;24.83;;;9.00;99.90;;;;;;4878617;29;20883;-93
2023/04/22 02:19:33;;;;;;;27.05;23.63;;;9.70;99.90;;;;;;4878557;29;20449;-92
2023/04/22 02:21:59;;;;;;;30.40;27.20;;;9.20;99.90;;;;;;4878503;29;20421;-92
2023/04/22 02:24:25;;;;;;;30.40;27.20;;;9.20;99.90;;;;;;4877461;29;20435;-93
2023/04/22 02:26:51;;;;;;;29.30;26.15;;;9.50;99.90;;;;;;4878073;29;20497;-91
2023/04/22 02:29:16;;;;;;;29.30;26.30;;;9.40;99.90;;;;;;4877837;29;20439;-91
2023/04/22 02:31:42;;;;;;;28.73;25.53;;;9.10;99.90;;;;;;4878359;29;20417;-92
2023/04/22 02:34:08;;;;;;;31.47;28.07;;;8.90;99.90;;;;;;4877801;29;20783;-92
2023/04/22 02:36:34;;;;;;;38.42;30.70;;;9.10;99.90;;;;;;4878190;29;20418;-91
2023/04/22 02:39:04;;;;;;;34.30;26.77;;;9.00;99.90;;;;;;4878325;29;20417;-91
2023/04/22 02:41:29;;;;;;;53.65;19.40;;;9.00;99.90;;;;;;4877474;29;20532;-91
2023/04/22 02:43:55;;;;;;;32.10;20.60;;;9.10;99.90;;;;;;4878799;29;20531;-91
2023/04/22 02:46:21;;;;;;;30.03;24.57;;;9.70;99.90;;;;;;4880692;29;20516;-92
2023/04/22 02:48:48;;;;;;;64.78;26.58;;;9.00;99.90;;;;;;4881884;29;20981;-91
2023/04/22 02:51:14;;;;;;;60.83;19.20;;;8.60;99.90;;;;;;4881152;29;21080;-91
2023/04/22 02:53:39;;;;;;;143.15;36.85;;;8.80;99.90;;;;;;4881486;29;20833;-92
2023/04/22 02:56:05;;;;;;;23.85;20.75;;;9.00;99.90;;;;;;4879812;29;20421;-91
2023/04/22 02:58:31;;;;;;;57.30;19.40;;;8.60;99.90;;;;;;4879768;29;20424;-94
2023/04/22 03:00:57;;;;;;;515.83;41.57;;;8.60;99.90;;;;;;4880463;29;20907;-94
2023/04/22 03:03:22;;;;;;;33.42;24.85;;;8.20;99.90;;;;;;4879310;29;20939;-92
2023/04/22 03:05:48;;;;;;;69.40;28.25;;;8.50;99.90;;;;;;4881163;29;20417;-93
2023/04/22 03:08:14;;;;;;;18.77;16.77;;;8.40;99.90;;;;;;4880784;29;20417;-91
2023/04/22 03:10:40;;;;;;;138.20;23.90;;;8.40;99.90;;;;;;4881010;29;20428;-93
2023/04/22 03:13:05;;;;;;;64.72;22.52;;;8.20;99.90;;;;;;4881144;29;20555;-92
2023/04/22 03:15:31;;;;;;;47.75;19.90;;;8.30;99.90;;;;;;4881213;29;20432;-94
2023/04/22 03:17:57;;;;;;;28.30;19.53;;;8.40;99.90;;;;;;4881190;29;21609;-93
2023/04/22 03:20:23;;;;;;;26.33;20.83;;;8.60;99.90;;;;;;4880613;29;20417;-92
2023/04/22 03:22:48;;;;;;;57.53;17.92;;;8.20;99.90;;;;;;4880869;29;20942;-91
2023/04/22 03:25:14;;;;;;;53.75;21.52;;;8.00;99.90;;;;;;4880222;29;20926;-91
2023/04/22 03:27:40;;;;;;;152.35;18.60;;;8.10;99.90;;;;;;4881251;29;20496;-93
2023/04/22 03:30:06;;;;;;;27.35;15.88;;;8.00;99.90;;;;;;4880186;29;20489;-92
2023/04/22 03:32:32;;;;;;;61.10;18.83;;;7.70;99.90;;;;;;4881203;29;20444;-93
2023/04/22 03:34:58;;;;;;;120.82;17.92;;;8.00;99.90;;;;;;4881095;29;20902;-93
2023/04/22 03:37:23;;;;;;;105.03;18.90;;;7.90;99.90;;;;;;4880812;29;20409;-92
2023/04/22 03:39:49;;;;;;;28.00;16.67;;;7.60;99.90;;;;;;4880966;29;20969;-93
2023/04/22 03:42:15;;;;;;;19.63;17.70;;;7.70;99.90;;;;;;4879651;29;20410;-94
2023/04/22 03:44:41;;;;;;;35.60;19.40;;;7.70;99.90;;;;;;4880673;29;20516;-93
2023/04/22 03:47:06;;;;;;;17.60;15.40;;;8.00;99.90;;;;;;4880188;29;20424;-92
2023/04/22 03:49:32;;;;;;;61.80;25.53;;;7.30;99.90;;;;;;4880932;29;20441;-92
2023/04/22 03:51:58;;;;;;;62.28;21.23;;;7.40;99.90;;;;;;4880005;29;20978;-92
2023/04/22 03:54:25;;;;;;;90.68;24.08;;;7.50;99.90;;;;;;4879766;29;20428;-92
2023/04/22 03:56:51;;;;;;;22.00;19.55;;;7.80;99.90;;;;;;4880082;29;20413;-93
2023/04/22 03:59:17;;;;;;;75.13;41.17;;;8.20;99.90;;;;;;4880121;29;20460;-92
2023/04/22 04:01:45;;;;;;;60.95;35.88;;;7.40;99.90;;;;;;4880424;29;20797;-93
2023/04/22 04:04:11;;;;;;;41.58;34.58;;;7.50;99.90;;;;;;4879483;29;20429;-92
2023/04/22 04:06:37;;;;;;;11.10;10.00;;;7.50;99.90;;;;;;4880041;29;20413;-92
2023/04/22 04:09:03;;;;;;;19.10;16.83;;;7.30;99.90;;;;;;4879583;29;20952;-93
2023/04/22 04:11:29;;;;;;;15.63;14.02;;;7.50;99.90;;;;;;4880659;29;20425;-94
2023/04/22 04:13:55;;;;;;;29.88;24.30;;;7.40;99.90;;;;;;4879833;29;20488;-92
2023/04/22 04:16:21;;;;;;;24.17;21.43;;;7.50;99.90;;;;;;4880045;29;20449;-92
2023/04/22 04:18:50;;;;;;;10.98;9.95;;;7.40;99.90;;;;;;4879989;29;20409;-92
2023/04/22 04:21:16;;;;;;;17.27;15.53;;;7.50;99.90;;;;;;4879628;29;20776;-93
2023/04/22 04:23:42;;;;;;;25.90;22.55;;;7.40;99.90;;;;;;4879824;29;20441;-92
2023/04/22 04:26:08;;;;;;;30.90;26.00;;;7.30;99.90;;;;;;4878930;29;20416;-92
2023/04/22 04:28:34;;;;;;;23.20;20.70;;;7.50;99.90;;;;;;4893120;29;20506;-93
2023/04/22 04:31:04;;;;;;;35.20;23.30;;;7.40;99.90;;;;;;4898369;29;20412;-93
2023/04/22 04:33:31;;;;;;;81.22;28.42;;;8.00;99.90;;;;;;4898264;29;20640;-91
2023/04/22 04:35:58;;;;;;;47.67;28.38;;;7.50;99.90;;;;;;4898534;29;20414;-92
2023/04/22 04:38:24;;;;;;;38.53;30.65;;;7.50;99.90;;;;;;4897483;29;20499;-92
2023/04/22 04:40:50;;;;;;;30.90;24.52;;;7.40;99.90;;;;;;4898144;29;20494;-92
2023/04/22 04:43:16;;;;;;;25.45;22.73;;;7.20;99.90;;;;;;4897791;29;20851;-93
2023/04/22 04:45:45;;;;;;;41.07;29.70;;;7.30;99.90;;;;;;4897083;29;20521;-91
2023/04/22 04:48:15;;;;;;;38.35;29.95;;;7.20;99.90;;;;;;4885213;29;20440;-91
2023/04/22 04:50:44;;;;;;;49.72;35.90;;;7.40;99.90;;;;;;4875509;29;20444;-90
2023/04/22 04:53:10;;;;;;;65.22;41.28;;;7.60;99.90;;;;;;4878702;29;20488;-92
2023/04/22 04:55:37;;;;;;;56.53;39.10;;;7.40;99.90;;;;;;4877781;29;20528;-91
2023/04/22 04:58:02;;;;;;;57.63;41.53;;;7.50;99.90;;;;;;4878991;29;20952;-91
2023/04/22 05:00:29;;;;;;;67.90;45.45;;;7.40;99.90;;;;;;4878119;29;20445;-91
2023/04/22 05:02:57;;;;;;;59.00;44.08;;;7.70;99.90;;;;;;4879048;29;20437;-92
2023/04/22 05:05:23;;;;;;;43.03;36.67;;;8.30;99.90;;;;;;4878129;29;20413;-93
2023/04/22 05:07:50;;;;;;;52.17;40.77;;;7.80;99.90;;;;;;4878035;29;20521;-95
2023/04/22 05:10:15;;;;;;;50.43;38.97;;;8.10;99.90;;;;;;4878462;29;20504;-94
2023/04/22 05:12:42;;;;;;;52.70;40.70;;;8.00;99.90;;;;;;4878667;29;20492;-91
2023/04/22 05:15:09;;;;;;;60.63;47.08;;;8.30;99.90;;;;;;4879052;29;20641;-91
2023/04/22 05:17:34;;;;;;;77.57;49.93;;;8.20;99.90;;;;;;4877842;29;20413;-92
2023/04/22 05:20:00;;;;;;;55.90;43.73;;;8.20;99.90;;;;;;4895499;29;20438;-92
2023/04/22 05:22:26;;;;;;;48.65;41.83;;;8.40;99.90;;;;;;4892559;29;20478;-91
2023/04/22 05:24:51;;;;;;;43.67;38.93;;;8.60;99.90;;;;;;4860130;29;20801;-91
2023/04/22 05:27:17;;;;;;;44.60;39.73;;;8.70;99.90;;;;;;4859396;29;20462;-93
2023/04/22 05:29:43;;;;;;;43.97;39.17;;;8.70;99.90;;;;;;4860404;29;20422;-93
2023/04/22 05:32:09;;;;;;;42.35;37.80;;;8.80;99.90;;;;;;4859949;29;20920;-93
2023/04/22 05:34:35;;;;;;;40.70;36.40;;;9.10;99.90;;;;;;4862127;29;20413;-92
2023/04/22 05:37:04;;;;;;;37.83;33.92;;;8.90;99.90;;;;;;4878099;29;20429;-92
2023/04/22 05:39:30;;;;;;;38.17;34.17;;;9.40;99.90;;;;;;4877906;29;20453;-92
2023/04/22 05:41:55;;;;;;;37.40;33.53;;;9.30;99.90;;;;;;4877582;29;20409;-93
2023/04/22 05:44:21;;;;;;;37.17;33.40;;;9.20;99.90;;;;;;4890445;29;20514;-92
2023/04/22 05:46:47;;;;;;;34.95;31.35;;;9.20;99.90;;;;;;4896892;29;20941;-91
2023/04/22 05:49:12;;;;;;;35.37;31.73;;;9.30;99.90;;;;;;4893170;29;20409;-94
2023/04/22 05:51:38;;;;;;;35.80;32.20;;;9.00;99.90;;;;;;4877769;29;20888;-92
2023/04/22 05:54:04;;;;;;;34.70;31.17;;;9.10;99.90;;;;;;4878006;29;20503;-90
2023/04/22 05:56:29;;;;;;;37.07;33.27;;;9.20;99.90;;;;;;4877096;29;20439;-91
2023/04/22 05:58:55;;;;;;;42.37;36.20;;;8.80;99.90;;;;;;4877578;29;20432;-90
2023/04/22 06:01:21;;;;;;;52.13;42.72;;;9.30;99.90;;;;;;4877391;29;20421;-92
2023/04/22 06:03:46;;;;;;;41.75;36.75;;;9.20;99.90;;;;;;4878121;29;20451;-91
2023/04/22 06:06:12;;;;;;;46.23;37.47;;;9.40;99.90;;;;;;4876919;29;21187;-91
2023/04/22 06:08:38;;;;;;;46.20;39.97;;;9.20;99.90;;;;;;4878688;29;20417;-91
2023/04/22 06:11:04;;;;;;;34.47;30.90;;;9.40;99.90;;;;;;4877965;29;20432;-92
2023/04/22 06:13:29;;;;;;;34.87;31.37;;;9.60;99.90;;;;;;4878002;29;20414;-93
2023/04/22 06:15:55;;;;;;;37.07;33.17;;;10.30;99.90;;;;;;4878441;29;20432;-90
2023/04/22 06:18:21;;;;;;;47.22;38.50;;;9.90;99.90;;;;;;4878621;29;20417;-92
2023/04/22 06:20:46;;;;;;;38.43;34.40;;;9.80;99.90;;;;;;4882157;29;20417;-91
2023/04/22 06:23:12;;;;;;;35.70;32.05;;;9.90;99.90;;;;;;4881064;29;20469;-92
2023/04/22 06:25:38;;;;;;;34.67;31.27;;;10.20;99.90;;;;;;4875204;29;20899;-92
2023/04/22 06:28:04;;;;;;;36.70;32.90;;;10.20;99.90;;;;;;4864325;29;20494;-91
2023/04/22 06:30:29;;;;;;;33.80;30.33;;;10.20;99.90;;;;;;4863515;29;20840;-91
2023/04/22 06:32:55;;;;;;;33.28;29.88;;;10.40;99.90;;;;;;4863212;29;20414;-92
2023/04/22 06:35:21;;;;;;;32.92;29.73;;;10.40;99.90;;;;;;4862464;29;20423;-91
2023/04/22 06:37:47;;;;;;;33.47;30.00;;;10.40;99.90;;;;;;4863427;29;20434;-91
2023/04/22 06:40:13;;;;;;;30.00;27.17;;;10.60;99.90;;;;;;4862327;29;20415;-94
2023/04/22 06:42:39;;;;;;;30.95;27.95;;;10.60;99.90;;;;;;4863302;29;20442;-94
2023/04/22 06:45:08;;;;;;;30.13;27.13;;;10.70;99.90;;;;;;4862397;29;20433;-91
2023/04/22 06:47:33;;;;;;;27.52;24.92;;;10.50;99.90;;;;;;4862952;29;20931;-90
2023/04/22 06:50:00;;;;;;;30.17;27.38;;;10.60;99.90;;;;;;4862535;29;20419;-91
2023/04/22 06:52:26;;;;;;;34.00;30.60;;;10.50;99.90;;;;;;4863324;29;20780;-91
2023/04/22 06:54:52;;;;;;;32.42;29.30;;;10.90;99.90;;;;;;4862366;29;20423;-93
2023/04/22 06:57:18;;;;;;;34.30;30.70;;;10.80;99.90;;;;;;4860011;29;20419;-91
2023/04/22 06:59:43;;;;;;;31.03;28.03;;;10.60;99.90;;;;;;4862225;29;20924;-91
2023/04/22 07:02:09;;;;;;;31.05;28.00;;;10.50;99.90;;;;;;4861027;29;20408;-90
2023/04/22 07:04:35;;;;;;;26.60;24.20;;;11.10;99.90;;;;;;4861593;29;20977;-90
2023/04/22 07:07:01;;;;;;;28.20;25.70;;;11.30;99.90;;;;;;4860873;29;20472;-91
2023/04/22 07:09:27;;;;;;;25.65;23.35;;;11.20;99.90;;;;;;4861467;29;20421;-93
2023/04/22 07:11:53;;;;;;;25.65;23.15;;;11.10;99.90;;;;;;4861454;29;20407;-91
2023/04/22 07:14:19;;;;;;;27.80;25.30;;;11.30;99.90;;;;;;4860834;29;20408;-91
2023/04/22 07:16:45;;;;;;;25.90;23.40;;;11.40;99.90;;;;;;4860789;29;20434;-91
2023/04/22 07:19:11;;;;;;;26.83;23.40;;;11.50;99.90;;;;;;4865368;29;21270;-93
2023/04/22 07:21:37;;;;;;;26.03;23.77;;;11.50;99.90;;;;;;4876119;29;20433;-92
2023/04/22 07:24:14;;;;;;;25.40;23.02;;;11.70;99.90;;;;;;4873416;29;20437;-91
2023/04/22 07:26:44;;;;;;;28.63;25.90;;;11.70;99.90;;;;;;4858773;29;20483;-90
2023/04/22 07:29:11;;;;;;;27.10;24.67;;;11.60;99.90;;;;;;4856613;29;20447;-92
2023/04/22 07:31:37;;;;;;;26.00;23.70;;;12.20;99.90;;;;;;4890488;29;20459;-91
2023/04/22 07:34:03;;;;;;;24.73;22.43;;;12.60;99.90;;;;;;4870253;29;20417;-91
2023/04/22 07:36:30;;;;;;;23.98;21.77;;;12.40;99.90;;;;;;4879007;29;20417;-93
2023/04/22 07:38:56;;;;;;;25.80;23.43;;;12.40;99.90;;;;;;4869883;29;20452;-91
2023/04/22 07:41:22;;;;;;;23.50;21.40;;;12.50;99.90;;;;;;4876840;29;20930;-91
2023/04/22 07:43:47;;;;;;;23.25;21.25;;;12.60;99.90;;;;;;4893880;29;20743;-93
2023/04/22 07:46:13;;;;;;;21.23;19.33;;;12.70;99.90;;;;;;4896040;29;20408;-92
2023/04/22 07:48:39;;;;;;;20.88;19.08;;;12.80;99.90;;;;;;4897860;29;20900;-91
2023/04/22 07:51:04;;;;;;;21.27;19.42;;;12.90;99.90;;;;;;4896686;29;20567;-92
2023/04/22 07:53:30;;;;;;;22.20;20.40;;;13.00;99.90;;;;;;4898384;29;20792;-92
2023/04/22 07:55:56;;;;;;;20.20;18.25;;;13.30;99.90;;;;;;4890452;29;21225;-94
2023/04/22 07:58:21;;;;;;;18.70;17.10;;;13.60;99.90;;;;;;4860449;29;20431;-90
2023/04/22 08:00:47;;;;;;;18.77;17.20;;;13.60;99.90;;;;;;4860957;29;20415;-93
2023/04/22 08:03:53;;;;;;;18.77;17.08;;;13.30;99.90;;;;;;4859785;29;20443;-95
2023/04/22 08:06:19;;;;;;;21.20;19.30;;;13.50;99.90;;;;;;4860840;29;21068;-94
2023/04/22 08:08:45;;;;;;;18.00;16.20;;;13.70;99.90;;;;;;4859728;29;20547;-93
2023/04/22 08:11:11;;;;;;;19.20;17.50;;;13.80;99.90;;;;;;4860818;29;20411;-94
2023/04/22 08:13:36;;;;;;;17.95;16.35;;;13.90;99.90;;;;;;4859431;29;20443;-95
2023/04/22 08:16:02;;;;;;;16.70;15.30;;;14.00;99.90;;;;;;4860517;29;21191;-93
2023/04/22 08:18:28;;;;;;;17.52;15.98;;;14.10;99.90;;;;;;4860133;29;20423;-92
2023/04/22 08:20:54;;;;;;;17.52;15.93;;;14.40;99.90;;;;;;4859585;29;20464;-96
2023/04/22 08:23:20;;;;;;;17.20;15.70;;;14.50;99.90;;;;;;4860316;29;20460;-93
2023/04/22 08:25:46;;;;;;;17.10;15.68;;;14.80;99.90;;;;;;4859075;29;20415;-94
2023/04/22 08:28:12;;;;;;;16.55;15.15;;;15.10;99.90;;;;;;4860035;29;20735;-94
2023/04/22 08:30:38;;;;;;;16.70;15.30;;;15.10;99.90;;;;;;4859144;29;21312;-95
2023/04/22 08:33:04;;;;;;;16.80;15.30;;;15.20;99.90;;;;;;4859856;29;20431;-91
2023/04/22 08:35:30;;;;;;;17.57;15.90;;;15.40;99.90;;;;;;4886894;29;20490;-93
2023/04/22 08:37:55;;;;;;;17.48;15.98;;;15.40;99.90;;;;;;4896827;29;20535;-95
2023/04/22 08:40:21;;;;;;;17.42;15.90;;;15.30;99.90;;;;;;4897219;29;20479;-93
2023/04/22 08:42:48;;;;;;;18.13;16.47;;;15.80;99.90;;;;;;4897650;29;20548;-94
2023/04/22 08:45:17;;;;;;;16.85;15.35;;;15.70;99.90;;;;;;4899693;29;20543;-95
2023/04/22 08:47:44;;;;;;;16.92;15.48;;;15.60;99.90;;;;;;4895334;29;20415;-94
2023/04/22 08:50:15;;;;;;;16.77;15.27;;;15.20;99.90;;;;;;4896433;29;20506;-95
2023/04/22 08:52:42;;;;;;;17.60;16.15;;;15.60;99.90;;;;;;4897082;29;20916;-95
2023/04/22 08:55:13;;;;;;;17.13;15.73;;;15.80;99.90;;;;;;4891609;29;20429;-93
2023/04/22 09:00:14;;;;;;;16.77;15.30;;;15.70;99.90;;;;;;4856884;29;20461;-94
2023/04/22 09:02:43;;;;;;;16.58;15.18;;;15.80;99.90;;;;;;4838592;29;20426;-95
2023/04/22 09:05:10;;;;;;;17.85;16.25;;;15.90;99.90;;;;;;4839252;29;20430;-94
2023/04/22 09:07:37;;;;;;;18.13;16.52;;;16.20;99.90;;;;;;4825603;29;20423;-94
2023/04/22 09:10:03;;;;;;;17.52;16.02;;;16.20;99.90;;;;;;4823957;29;20418;-94
2023/04/22 09:12:32;;;;;;;16.63;15.15;;;16.20;99.90;;;;;;4845201;29;20510;-94
2023/04/22 09:15:00;;;;;;;16.93;15.43;;;16.20;99.90;;;;;;4825138;29;20467;-94
2023/04/22 09:17:31;;;;;;;17.48;16.00;;;16.40;99.90;;;;;;4825954;29;20521;-95
2023/04/22 09:20:04;;;;;;;16.50;15.00;;;16.60;99.90;;;;;;4826930;29;20426;-93
2023/04/22 09:22:45;;;;;;;15.75;14.35;;;16.70;99.90;;;;;;4828144;29;20438;-92
2023/04/22 09:25:31;;;;;;;17.15;15.57;;;16.80;99.90;;;;;;4868768;24;20462;-95
2023/04/22 09:27:58;;;;;;;16.40;14.93;;;17.00;99.90;;;;;;4861322;29;20431;-91
2023/04/22 09:30:36;;;;;;;15.85;14.55;;;17.40;99.90;;;;;;4860917;29;20419;-89
2023/04/22 09:33:04;;;;;;;15.95;14.55;;;17.30;99.90;;;;;;4858367;29;20993;-89
2023/04/22 09:35:38;;;;;;;15.13;13.77;;;17.50;99.90;;;;;;4861328;29;20502;-91
2023/04/22 09:38:06;;;;;;;15.05;13.82;;;17.50;99.90;;;;;;4860205;29;20522;-89
2023/04/22 09:40:33;;;;;;;15.50;14.10;;;17.90;99.90;;;;;;4859968;29;20857;-90
2023/04/22 09:43:07;;;;;;;14.97;13.77;;;17.80;99.90;;;;;;4859671;29;20958;-90
2023/04/22 09:45:39;;;;;;;14.90;13.60;;;17.80;99.90;;;;;;4857858;29;20473;-92
2023/04/22 09:48:10;;;;;;;13.95;12.82;;;17.90;99.90;;;;;;4861175;29;20445;-90
2023/04/22 09:50:37;;;;;;;13.32;12.23;;;18.00;99.90;;;;;;4858654;29;21157;-90
2023/04/22 09:53:06;;;;;;;13.13;12.02;;;18.00;99.90;;;;;;4860666;29;20428;-91
2023/04/22 09:55:35;;;;;;;14.52;13.30;;;18.20;99.90;;;;;;4859621;29;20458;-88
2023/04/22 09:58:07;;;;;;;13.55;12.45;;;18.40;99.90;;;;;;4858741;29;20768;-92
2023/04/22 10:00:36;;;;;;;13.70;12.60;;;18.50;99.90;;;;;;4860560;29;20443;-87
2023/04/22 10:03:03;;;;;;;14.02;12.73;;;18.60;99.90;;;;;;4858144;29;20451;-92
2023/04/22 10:05:29;;;;;;;14.30;13.00;;;18.70;99.90;;;;;;4861235;29;20425;-90
2023/04/22 10:07:55;;;;;;;14.02;12.82;;;19.00;99.90;;;;;;4858429;29;20422;-89
2023/04/22 10:10:22;;;;;;;14.63;13.43;;;18.80;99.90;;;;;;4860405;29;20932;-91
2023/04/22 10:12:49;;;;;;;13.73;12.63;;;19.10;99.90;;;;;;4858740;29;20458;-88
2023/04/22 10:15:14;;;;;;;13.77;12.57;;;19.20;99.90;;;;;;4873699;29;20427;-88
2023/04/22 10:17:42;;;;;;;12.93;11.83;;;19.50;99.90;;;;;;4860778;29;20939;-89
2023/04/22 10:20:14;;;;;;;13.47;12.47;;;19.60;94.00;;;;;;4858210;29;20429;-89
2023/04/22 10:22:44;;;;;;;12.20;11.20;;;19.80;99.90;;;;;;4875733;29;20518;-91
2023/04/22 10:25:22;;;;;;;13.15;12.02;;;20.00;91.20;;;;;;4857391;29;20797;-89
2023/04/22 10:28:04;;;;;;;13.57;12.40;;;20.20;93.90;;;;;;4859247;29;20431;-89
2023/04/22 10:30:32;;;;;;;13.70;12.57;;;20.50;95.80;;;;;;4860008;29;20506;-89
2023/04/22 10:33:37;;;;;;;12.90;11.80;;;20.70;93.80;;;;;;4858201;29;20415;-88
2023/04/22 10:36:18;;;;;;;12.07;11.18;;;21.00;93.70;;;;;;4859538;29;20434;-89
2023/04/22 10:38:52;;;;;;;12.40;11.40;;;21.40;89.70;;;;;;4857910;29;20979;-88
2023/04/22 10:41:28;;;;;;;13.02;11.93;;;21.40;83.00;;;;;;4873080;29;20501;-88
2023/04/22 10:44:04;;;;;;;11.98;11.07;;;21.60;84.30;;;;;;4859584;29;20453;-90
2023/04/22 10:46:33;;;;;;;13.23;12.13;;;21.80;69.50;;;;;;4857082;29;20431;-88
2023/04/22 10:49:06;;;;;;;13.17;12.07;;;22.00;75.00;;;;;;4891493;29;20936;-88
2023/04/22 10:51:44;;;;;;;13.13;12.13;;;21.70;75.30;;;;;;4873443;29;20482;-88
2023/04/22 10:54:36;;;;;;;12.30;11.20;;;21.80;74.30;;;;;;4858135;29;20412;-88
2023/04/22 10:57:06;;;;;;;11.93;10.93;;;21.70;73.10;;;;;;4831412;29;20512;-90
2023/04/22 10:59:33;;;;;;;12.52;11.52;;;21.70;67.10;;;;;;4872442;29;20423;-87
2023/04/22 11:02:06;;;;;;;11.68;10.77;;;21.90;81.70;;;;;;4859996;29;20411;-90
2023/04/22 11:04:32;;;;;;;11.55;10.55;;;22.30;86.20;;;;;;4873464;29;20805;-89
2023/04/22 11:07:21;;;;;;;9.80;9.00;;;22.70;73.80;;;;;;4894186;29;20430;-88
2023/04/22 11:10:15;;;;;;;10.80;9.95;;;23.10;63.00;;;;;;4862486;29;20962;-87
2023/04/22 11:12:45;;;;;;;10.65;9.85;;;23.30;61.20;;;;;;4868251;29;20515;-88
2023/04/22 11:15:18;;;;;;;9.57;8.80;;;23.40;65.00;;;;;;4893545;29;20538;-89
2023/04/22 11:17:46;;;;;;;11.20;10.30;;;23.60;57.10;;;;;;4876259;29;20442;-88
2023/04/22 11:20:16;;;;;;;9.93;9.03;;;23.90;62.50;;;;;;4860758;29;20419;-88
2023/04/22 11:22:45;;;;;;;10.57;9.65;;;24.00;58.30;;;;;;4877551;29;20427;-88
2023/04/22 11:25:11;;;;;;;9.18;8.48;;;24.40;56.40;;;;;;4874998;29;20434;-88
2023/04/22 11:27:38;;;;;;;8.97;8.17;;;24.50;53.80;;;;;;4876923;29;20438;-88
2023/04/22 11:30:16;;;;;;;8.93;8.23;;;24.40;53.60;;;;;;4892443;29;20533;-89
2023/04/22 11:32:47;;;;;;;8.77;8.02;;;24.20;52.90;;;;;;4878024;29;20423;-95
2023/04/22 11:35:18;;;;;;;9.10;8.40;;;23.90;53.80;;;;;;4877956;29;20447;-92
2023/04/22 11:37:46;;;;;;;9.10;8.37;;;24.00;55.30;;;;;;4860893;29;20415;-90
2023/04/22 11:40:15;;;;;;;8.77;7.95;;;23.80;55.00;;;;;;4877628;29;20509;-91
2023/04/22 11:42:41;;;;;;;7.93;7.33;;;23.60;53.10;;;;;;4890345;29;20932;-87
2023/04/22 11:45:07;;;;;;;9.50;8.70;;;23.50;52.40;;;;;;4877835;29;20423;-89
2023/04/22 11:47:33;;;;;;;8.65;7.90;;;23.50;54.00;;;;;;4875106;29;20479;-89
2023/04/22 11:50:05;;;;;;;9.60;8.80;;;23.60;55.80;;;;;;4876792;29;20883;-89
2023/04/22 11:52:50;;;;;;;9.85;9.05;;;23.60;56.40;;;;;;4861019;29;20476;-87
2023/04/22 11:55:31;;;;;;;9.20;8.40;;;23.50;57.00;;;;;;4875171;29;20427;-90
2023/04/22 11:57:57;;;;;;;8.65;7.95;;;23.60;56.10;;;;;;4877605;29;20435;-89
2023/04/22 12:00:30;;;;;;;8.25;7.55;;;23.60;55.60;;;;;;4859256;29;20521;-90
2023/04/22 12:03:01;;;;;;;7.80;7.20;;;23.50;54.00;;;;;;4876957;29;20447;-87
2023/04/22 12:05:39;;;;;;;7.93;7.28;;;23.30;55.20;;;;;;4891345;29;20441;-87
2023/04/22 12:08:13;;;;;;;8.75;8.05;;;23.40;54.10;;;;;;4860191;29;21033;-89
2023/04/22 12:10:49;;;;;;;7.57;6.97;;;23.30;55.00;;;;;;4876370;29;20648;-89
2023/04/22 12:13:23;;;;;;;7.93;7.22;;;23.40;54.10;;;;;;4874870;29;20431;-88
2023/04/22 12:15:53;;;;;;;7.80;7.15;;;23.20;53.50;;;;;;4892072;29;20422;-88
2023/04/22 12:18:29;;;;;;;8.57;7.88;;;23.20;53.90;;;;;;4875199;29;20426;-88
2023/04/22 12:20:59;;;;;;;8.77;8.02;;;22.80;53.20;;;;;;4875466;29;20836;-88
2023/04/22 12:23:25;;;;;;;8.80;8.10;;;22.90;57.20;;;;;;4876220;29;20477;-87
2023/04/22 12:25:51;;;;;;;8.40;7.70;;;22.80;58.40;;;;;;4874301;29;20793;-86
2023/04/22 12:28:16;;;;;;;8.97;8.20;;;22.70;53.10;;;;;;4876254;29;20447;-87
2023/04/22 12:30:42;;;;;;;8.32;7.65;;;22.60;54.60;;;;;;4874136;29;20445;-89
2023/04/22 12:33:09;;;;;;;9.45;8.55;;;22.70;57.40;;;;;;4860622;29;20427;-88
2023/04/22 12:35:34;;;;;;;8.47;7.77;;;22.60;56.70;;;;;;4875025;29;20510;-88
2023/04/22 12:38:00;;;;;;;8.07;7.47;;;22.80;54.70;;;;;;4891212;29;20522;-87